Robert G. Stone, Jr. — WDD4596 — position and weather

sailwx.info

Track history (hours):
 
Tides and Currents Weather Stations Pressure Air Temp Water Temp Dewpoint Dewpoint Depression Visibility Wind Speed Wind Dir Waves Ship Positions

Robert G. Stone, Jr.

Owner: Kirby Inland Marine, LP, Houston, TX. More information available from US FCC via Universal Licensing System and Coast Guard Vessel Documentation Center.

Last reported at 2014-Dec-08 21:33 UTC. Time now 2014-Dec-22 22:43 UTC.
Position N 29°56' W 089°59'.
Warning: this ship's position is 14 days out of date.

Length 27 m; draft 3.1 m.

Type: Towing. MMSI: 367146780.

Date/timePositionNaut miles runAvg speedWind from/ knotsBaromVisibWave heightAir tempDewpointWater temp
2014-Dec-08 21:33N 29°56' W 089°59'0 0.0
2014-Dec-08 20:27N 29°56' W 089°59'0 0.0
2014-Dec-08 19:30N 29°56' W 089°59'0 0.0
2014-Dec-08 18:09N 29°56' W 089°59'0 0.0
2014-Dec-08 17:29N 29°56' W 089°59'0 0.0
2014-Dec-08 16:29N 29°56' W 089°59'0 0.0
2014-Dec-08 15:33N 29°56' W 089°59'0 0.0
2014-Dec-08 14:27N 29°56' W 089°59'0 0.0
2014-Dec-08 13:31N 29°56' W 089°59'0 0.0
2014-Dec-08 12:29N 29°56' W 089°59'0 0.0
2014-Dec-08 11:20N 29°56' W 089°59'0 0.0
2014-Dec-08 10:31N 29°56' W 089°59'0 0.0
2014-Dec-08 09:33N 29°56' W 089°59'0 0.0
2014-Dec-08 08:09N 29°56' W 089°59'55 1.7
2014-Dec-06 23:33N 29°34' W 090°57'5 5.3
2014-Dec-06 22:33N 29°37' W 091°02'5 5.3
2014-Dec-06 21:33N 29°40' W 091°08'3 3.5
2014-Dec-06 20:33N 29°41' W 091°11'4 4.3
2014-Dec-06 19:33N 29°39' W 091°16'3 3.3
2014-Dec-06 18:33N 29°38' W 091°19'5 5.1
2014-Dec-06 17:33N 29°39' W 091°25'6 5.8
2014-Dec-06 16:33N 29°42' W 091°31'4 0.4
2014-Dec-06 05:32N 29°45' W 091°35'  
2014-Dec-01 16:33N 29°14' W 095°13'0 0.0
2014-Dec-01 15:32N 29°14' W 095°13'0 0.0
2014-Dec-01 14:33N 29°14' W 095°13'0 0.0
2014-Dec-01 13:27N 29°14' W 095°13'9 0.2
2014-Nov-29 16:33N 29°13' W 095°03'5 5.5
2014-Nov-29 15:32N 29°17' W 094°59'6 6.2
2014-Nov-29 14:32N 29°19' W 094°52'9 8.3
2014-Nov-29 13:26N 29°25' W 094°44'  
Track history (hours):
 
Tides and Currents Weather Stations Pressure Air Temp Water Temp Dewpoint Dewpoint Depression Visibility Wind Speed Wind Dir Waves Ship Positions

Robert G. Stone, Jr.

Owner: Kirby Inland Marine, LP, Houston, TX. More information available from US FCC via Universal Licensing System and Coast Guard Vessel Documentation Center.

Last reported at 2014-Dec-08 21:33 UTC. Time now 2014-Dec-22 22:43 UTC.
Position N 29°56' W 089°59'.
Warning: this ship's position is 14 days out of date.

Length 27 m; draft 3.1 m.

Type: Towing. MMSI: 367146780.

Date/timePositionNaut miles runAvg speedWind from/ knotsBaromVisibWave heightAir tempDewpointWater temp
2014-Dec-08 21:33N 29°56' W 089°59'0 0.0
2014-Dec-08 20:27N 29°56' W 089°59'0 0.0
2014-Dec-08 19:30N 29°56' W 089°59'0 0.0
2014-Dec-08 18:09N 29°56' W 089°59'0 0.0
2014-Dec-08 17:29N 29°56' W 089°59'0 0.0
2014-Dec-08 16:29N 29°56' W 089°59'0 0.0
2014-Dec-08 15:33N 29°56' W 089°59'0 0.0
2014-Dec-08 14:27N 29°56' W 089°59'0 0.0
2014-Dec-08 13:31N 29°56' W 089°59'0 0.0
2014-Dec-08 12:29N 29°56' W 089°59'0 0.0
2014-Dec-08 11:20N 29°56' W 089°59'0 0.0
2014-Dec-08 10:31N 29°56' W 089°59'0 0.0
2014-Dec-08 09:33N 29°56' W 089°59'0 0.0
2014-Dec-08 08:09N 29°56' W 089°59'55 1.7
2014-Dec-06 23:33N 29°34' W 090°57'5 5.3
2014-Dec-06 22:33N 29°37' W 091°02'5 5.3
2014-Dec-06 21:33N 29°40' W 091°08'3 3.5
2014-Dec-06 20:33N 29°41' W 091°11'4 4.3
2014-Dec-06 19:33N 29°39' W 091°16'3 3.3
2014-Dec-06 18:33N 29°38' W 091°19'5 5.1
2014-Dec-06 17:33N 29°39' W 091°25'6 5.8
2014-Dec-06 16:33N 29°42' W 091°31'4 0.4
2014-Dec-06 05:32N 29°45' W 091°35'  
2014-Dec-01 16:33N 29°14' W 095°13'0 0.0
2014-Dec-01 15:32N 29°14' W 095°13'0 0.0
2014-Dec-01 14:33N 29°14' W 095°13'0 0.0
2014-Dec-01 13:27N 29°14' W 095°13'9 0.2
2014-Nov-29 16:33N 29°13' W 095°03'5 5.5
2014-Nov-29 15:32N 29°17' W 094°59'6 6.2
2014-Nov-29 14:32N 29°19' W 094°52'9 8.3
2014-Nov-29 13:26N 29°25' W 094°44'  

Dump ship's entire track history